Appam, North Dakota
Current Conditions -  °F | °C
As of 3:35 AM on Friday 28 Nov 2014 (Local Time) from KD50 Reporting Station
Overcast Overcast  
Wind Chill: -5°   Ceiling: 1300
Heat Index: 10°   Visibility: 10mi
Dew Point:   Wind: 14mph
Humidity: 85%   Direction: 100°E
Pressure: 29.82"   Gusts: NA
Location:  48.59°N, 103.406°W
Report Text: KD50 280935Z AUTO 10012KT 10SM BKN013 OVC020 M12/M14 A2982 RMK AO2
Loading
Personal Weather Stations






























Interactive Weather Map New forecast layout! Learn more

10-Day Weather Forecast

Advertisements
Track Severe Weather on mobile